createdAt,value
2019-03-13T00:00:00.825Z,42.21
2019-03-13T00:01:00.878Z,42.15
2019-03-13T00:02:00.727Z,42.17
2019-03-13T00:03:00.789Z,42.18
2019-03-13T00:04:00.535Z,42.18
2019-03-13T00:05:00.779Z,42.15
2019-03-13T00:06:01.069Z,42.18
2019-03-13T00:07:00.555Z,42.18
2019-03-13T00:08:00.720Z,42.19
2019-03-13T00:09:00.764Z,42.22
2019-03-13T00:10:00.607Z,42.19
2019-03-13T00:11:00.799Z,42.24
2019-03-13T00:12:00.767Z,42.15
2019-03-13T00:13:00.954Z,42.13
2019-03-13T00:14:00.623Z,42.15
2019-03-13T00:15:00.880Z,42.19
2019-03-13T00:16:00.677Z,42.24
2019-03-13T00:17:00.844Z,42.25
2019-03-13T00:18:00.660Z,42.24
2019-03-13T00:19:00.686Z,42.21
2019-03-13T00:20:00.837Z,42.26
2019-03-13T00:21:00.674Z,42.22
2019-03-13T00:22:00.822Z,42.17
2019-03-13T00:23:00.950Z,42.17
2019-03-13T00:24:00.632Z,42.25
2019-03-13T00:25:00.986Z,42.24
2019-03-13T00:26:00.875Z,42.16
2019-03-13T00:27:00.726Z,42.18
2019-03-13T00:28:00.724Z,42.24
2019-03-13T00:29:00.645Z,42.22
2019-03-13T00:30:02.220Z,42.14
2019-03-13T00:31:00.820Z,42.13
2019-03-13T00:32:00.564Z,42.14
2019-03-13T00:33:00.740Z,42.2
2019-03-13T00:34:01.032Z,42.2
2019-03-13T00:35:00.582Z,42.21
2019-03-13T00:36:00.731Z,42.16
2019-03-13T00:37:00.856Z,42.23
2019-03-13T00:38:00.594Z,42.19
2019-03-13T00:39:00.791Z,42.23
2019-03-13T00:40:00.971Z,42.25
2019-03-13T00:41:00.639Z,42.22
2019-03-13T00:42:00.751Z,42.25
2019-03-13T00:43:00.914Z,42.26
2019-03-13T00:44:00.776Z,42.25
2019-03-13T00:45:01.106Z,42.21
2019-03-13T00:46:01.011Z,42.19
2019-03-13T00:47:00.609Z,42.13
2019-03-13T00:48:00.758Z,42.19
2019-03-13T00:49:00.540Z,42.15
2019-03-13T00:50:00.786Z,42.13
2019-03-13T00:51:00.821Z,42.16
2019-03-13T00:52:00.645Z,42.13
2019-03-13T00:53:00.610Z,42.2
2019-03-13T00:54:00.759Z,42.19
2019-03-13T00:55:00.567Z,42.15
2019-03-13T00:56:00.625Z,42.17
2019-03-13T00:57:00.825Z,42.19
2019-03-13T00:58:00.652Z,42.17
2019-03-13T00:59:00.647Z,42.21
2019-03-13T01:00:00.908Z,42.19
2019-03-13T01:01:04.147Z,42.25
2019-03-13T01:02:00.796Z,42.25
2019-03-13T01:03:00.808Z,42.22
2019-03-13T01:04:03.299Z,42.25
2019-03-13T01:05:00.705Z,42.26
2019-03-13T01:06:00.876Z,42.17
2019-03-13T01:07:00.605Z,42.2
2019-03-13T01:08:00.710Z,42.22
2019-03-13T01:09:00.803Z,42.2
2019-03-13T01:10:00.658Z,42.28
2019-03-13T01:11:00.548Z,42.23
2019-03-13T01:12:00.827Z,42.26
2019-03-13T01:13:00.710Z,42.25
2019-03-13T01:14:00.958Z,42.25
2019-03-13T01:15:00.656Z,42.28
2019-03-13T01:16:00.698Z,42.2
2019-03-13T01:17:00.846Z,42.18
2019-03-13T01:18:00.619Z,42.2
2019-03-13T01:19:00.840Z,42.18
2019-03-13T01:20:00.868Z,42.19
2019-03-13T01:21:00.599Z,42.22
2019-03-13T01:22:00.736Z,42.2
2019-03-13T01:23:00.561Z,42.23
2019-03-13T01:24:00.926Z,42.24
2019-03-13T01:25:00.798Z,42.28
2019-03-13T01:26:00.589Z,42.31
2019-03-13T01:27:00.524Z,42.24
2019-03-13T01:28:00.755Z,42.28
2019-03-13T01:29:00.624Z,42.29
2019-03-13T01:30:00.657Z,42.22
2019-03-13T01:31:00.562Z,42.24
2019-03-13T01:32:00.685Z,42.21
2019-03-13T01:33:00.634Z,42.22
2019-03-13T01:34:00.968Z,42.26
2019-03-13T01:35:00.616Z,42.27
2019-03-13T01:36:00.676Z,42.24
2019-03-13T01:37:00.820Z,42.22
2019-03-13T01:38:00.823Z,42.33
2019-03-13T01:39:01.301Z,42.26
2019-03-13T01:40:00.815Z,42.27
2019-03-13T01:41:00.670Z,42.3
2019-03-13T01:42:00.804Z,42.3
2019-03-13T01:43:00.853Z,42.29
2019-03-13T01:44:00.694Z,42.27
2019-03-13T01:45:00.683Z,42.29
2019-03-13T01:46:00.649Z,42.27
2019-03-13T01:47:00.645Z,42.24
2019-03-13T01:48:00.695Z,42.33
2019-03-13T01:49:00.519Z,42.29
2019-03-13T01:50:00.708Z,42.28
2019-03-13T01:51:00.695Z,42.31
2019-03-13T01:52:00.569Z,42.31
2019-03-13T01:53:00.696Z,42.27
2019-03-13T01:54:00.860Z,42.32
2019-03-13T01:55:00.632Z,42.31
2019-03-13T01:56:00.777Z,42.26
2019-03-13T01:57:00.786Z,42.25
2019-03-13T01:58:00.718Z,42.29
2019-03-13T01:59:00.568Z,42.29
2019-03-13T02:00:00.828Z,42.28
2019-03-13T02:01:00.755Z,42.28
2019-03-13T02:02:00.777Z,42.28
2019-03-13T02:03:00.626Z,42.28
2019-03-13T02:04:00.748Z,42.29
2019-03-13T02:05:00.792Z,42.31
2019-03-13T02:06:00.615Z,42.32
2019-03-13T02:07:00.796Z,42.3
2019-03-13T02:08:00.783Z,42.29
2019-03-13T02:09:00.618Z,42.31
2019-03-13T02:10:00.620Z,42.31
2019-03-13T02:11:00.841Z,42.33
2019-03-13T02:12:00.718Z,42.29
2019-03-13T02:13:00.826Z,42.29
2019-03-13T02:14:00.643Z,42.33
2019-03-13T02:15:00.683Z,42.32
2019-03-13T02:16:00.834Z,42.32
2019-03-13T02:17:00.591Z,42.28
2019-03-13T02:18:00.523Z,42.28
2019-03-13T02:19:00.725Z,42.36
2019-03-13T02:20:00.687Z,42.34
2019-03-13T02:21:00.658Z,42.31
2019-03-13T02:22:00.822Z,42.31
2019-03-13T02:23:00.683Z,42.38
2019-03-13T02:24:00.692Z,42.31
2019-03-13T02:25:00.852Z,42.35
2019-03-13T02:26:00.603Z,42.36
2019-03-13T02:27:00.650Z,42.4
2019-03-13T02:28:00.841Z,42.39
2019-03-13T02:29:00.626Z,42.41
2019-03-13T02:30:01.223Z,42.41
2019-03-13T02:31:00.645Z,42.31
2019-03-13T02:32:00.903Z,42.34
2019-03-13T02:33:00.783Z,42.37
2019-03-13T02:34:00.669Z,42.38
2019-03-13T02:35:00.641Z,42.4
2019-03-13T02:36:00.883Z,42.35
2019-03-13T02:37:00.577Z,42.43
2019-03-13T02:38:00.554Z,42.36
2019-03-13T02:39:00.737Z,42.39
2019-03-13T02:40:01.039Z,42.35
2019-03-13T02:41:00.678Z,42.39
2019-03-13T02:42:00.829Z,42.39
2019-03-13T02:43:00.691Z,42.4
2019-03-13T02:44:00.732Z,42.32
2019-03-13T02:45:01.182Z,42.36
2019-03-13T02:46:00.723Z,42.39
2019-03-13T02:47:00.829Z,42.37
2019-03-13T02:48:00.563Z,42.42
2019-03-13T02:49:00.641Z,42.43
2019-03-13T02:50:00.776Z,42.38
2019-03-13T02:51:00.844Z,42.38
2019-03-13T02:52:00.596Z,42.4
2019-03-13T02:53:00.840Z,42.4
2019-03-13T02:54:00.568Z,42.36
2019-03-13T02:55:00.736Z,42.43
2019-03-13T02:56:00.597Z,42.45
2019-03-13T02:57:00.601Z,42.38
2019-03-13T02:58:01.066Z,42.38
2019-03-13T02:59:00.697Z,42.41
2019-03-13T03:00:00.795Z,42.42
2019-03-13T03:01:01.005Z,42.42
2019-03-13T03:02:00.603Z,42.43
2019-03-13T03:03:00.545Z,42.38
2019-03-13T03:04:00.778Z,42.38
2019-03-13T03:05:00.717Z,42.37
2019-03-13T03:06:01.089Z,42.38
2019-03-13T03:07:01.202Z,42.43
2019-03-13T03:08:00.682Z,42.38
2019-03-13T03:09:00.669Z,42.42
2019-03-13T03:10:00.847Z,42.38
2019-03-13T03:11:00.679Z,42.35
2019-03-13T03:12:00.711Z,42.39
2019-03-13T03:13:00.605Z,42.46
2019-03-13T03:14:00.625Z,42.44
2019-03-13T03:15:00.763Z,42.46
2019-03-13T03:16:00.614Z,42.42
2019-03-13T03:17:00.633Z,42.44
2019-03-13T03:18:00.690Z,42.36
2019-03-13T03:19:00.503Z,42.44
2019-03-13T03:20:00.970Z,42.39
2019-03-13T03:21:00.794Z,42.42
2019-03-13T03:22:00.554Z,42.4
2019-03-13T03:23:00.749Z,42.42
2019-03-13T03:24:00.709Z,42.44
2019-03-13T03:25:01.219Z,42.42
2019-03-13T03:26:00.805Z,42.45
2019-03-13T03:27:00.876Z,42.43
2019-03-13T03:28:00.618Z,42.42
2019-03-13T03:29:00.854Z,42.42
2019-03-13T03:30:01.580Z,42.37
2019-03-13T03:31:00.723Z,42.4
2019-03-13T03:32:00.827Z,42.39
2019-03-13T03:33:00.921Z,42.4
2019-03-13T03:34:01.533Z,42.36
2019-03-13T03:35:02.354Z,42.36
2019-03-13T03:36:00.600Z,42.4
2019-03-13T03:37:00.739Z,42.41
2019-03-13T03:38:00.744Z,42.42
2019-03-13T03:39:00.660Z,42.42
2019-03-13T03:40:00.747Z,42.48
2019-03-13T03:41:00.915Z,42.42
2019-03-13T03:42:00.743Z,42.44
2019-03-13T03:43:00.559Z,42.46
2019-03-13T03:44:00.863Z,42.4
2019-03-13T03:45:00.912Z,42.4
2019-03-13T03:46:01.055Z,42.42
2019-03-13T03:47:00.759Z,42.42
2019-03-13T03:48:00.689Z,42.41
2019-03-13T03:49:00.790Z,42.42
2019-03-13T03:50:01.067Z,42.49
2019-03-13T03:51:00.857Z,42.38
2019-03-13T03:52:00.950Z,42.48
2019-03-13T03:53:00.629Z,42.45
2019-03-13T03:54:00.766Z,42.45
2019-03-13T03:55:00.993Z,42.45
2019-03-13T03:56:00.515Z,42.43
2019-03-13T03:57:00.667Z,42.43
2019-03-13T03:58:00.855Z,42.42
2019-03-13T03:59:00.634Z,42.41
2019-03-13T04:00:00.809Z,42.45
2019-03-13T04:01:00.733Z,42.42
2019-03-13T04:02:00.553Z,42.46
2019-03-13T04:03:00.850Z,42.43
2019-03-13T04:04:00.699Z,42.41
2019-03-13T04:05:01.077Z,42.42
2019-03-13T04:06:00.712Z,42.43
2019-03-13T04:07:00.483Z,42.4
2019-03-13T04:08:00.682Z,42.47
2019-03-13T04:09:00.799Z,42.46
2019-03-13T04:10:00.707Z,42.4
2019-03-13T04:11:00.521Z,42.48
2019-03-13T04:12:00.952Z,42.45
2019-03-13T04:13:00.713Z,42.47
2019-03-13T04:14:00.717Z,42.42
2019-03-13T04:15:00.721Z,42.42
2019-03-13T04:16:00.496Z,42.36
2019-03-13T04:17:00.674Z,42.33
2019-03-13T04:18:00.721Z,42.37
2019-03-13T04:19:00.525Z,42.39
2019-03-13T04:20:01.032Z,42.32
2019-03-13T04:21:00.774Z,42.38
2019-03-13T04:22:00.526Z,42.35
2019-03-13T04:23:00.660Z,42.38
2019-03-13T04:24:00.769Z,42.42
2019-03-13T04:25:00.792Z,42.38
2019-03-13T04:26:00.717Z,42.42
2019-03-13T04:27:00.790Z,42.35
2019-03-13T04:28:00.594Z,42.38
2019-03-13T04:29:00.678Z,42.37
2019-03-13T04:30:01.158Z,42.36
2019-03-13T04:31:00.547Z,42.35
2019-03-13T04:32:00.701Z,42.31
2019-03-13T04:33:00.739Z,42.32
2019-03-13T04:34:00.555Z,42.35
2019-03-13T04:35:01.077Z,42.31
2019-03-13T04:36:00.924Z,42.3
2019-03-13T04:37:00.620Z,42.3
2019-03-13T04:38:00.713Z,42.3
2019-03-13T04:39:00.794Z,42.32
2019-03-13T04:40:00.659Z,42.28
2019-03-13T04:41:00.648Z,42.32
2019-03-13T04:42:00.751Z,42.29
2019-03-13T04:43:00.598Z,42.32
2019-03-13T04:44:00.744Z,42.28
2019-03-13T04:45:00.566Z,42.31
2019-03-13T04:46:00.635Z,42.24
2019-03-13T04:47:00.713Z,42.26
2019-03-13T04:48:00.588Z,42.32
2019-03-13T04:49:00.611Z,42.26
2019-03-13T04:50:00.806Z,42.24
2019-03-13T04:51:00.547Z,42.26
2019-03-13T04:52:00.738Z,42.28
2019-03-13T04:53:00.783Z,42.28
2019-03-13T04:54:00.550Z,42.32
2019-03-13T04:55:00.738Z,42.31
2019-03-13T04:56:00.526Z,42.3
2019-03-13T04:57:01.035Z,42.29
2019-03-13T04:58:00.980Z,42.33
2019-03-13T04:59:00.544Z,42.29
2019-03-13T05:00:00.568Z,42.33
2019-03-13T05:01:00.720Z,42.31
2019-03-13T05:02:00.545Z,42.33
2019-03-13T05:03:00.870Z,42.29
2019-03-13T05:04:00.652Z,42.33
2019-03-13T05:05:00.576Z,42.36
2019-03-13T05:06:00.681Z,42.35
2019-03-13T05:07:00.787Z,42.34
2019-03-13T05:08:00.566Z,42.34
2019-03-13T05:09:00.632Z,42.35
2019-03-13T05:10:00.686Z,42.41
2019-03-13T05:11:00.896Z,42.37
2019-03-13T05:12:00.674Z,42.35
2019-03-13T05:13:00.873Z,42.33
2019-03-13T05:14:00.619Z,42.4
2019-03-13T05:15:00.651Z,42.31
2019-03-13T05:16:00.480Z,42.35
2019-03-13T05:17:00.664Z,42.35
2019-03-13T05:18:00.627Z,42.32
2019-03-13T05:19:00.579Z,42.34
2019-03-13T05:20:00.706Z,42.26
2019-03-13T05:21:00.743Z,42.26
2019-03-13T05:22:00.451Z,42.3
2019-03-13T05:23:00.584Z,42.31
2019-03-13T05:24:00.748Z,42.29
2019-03-13T05:25:00.721Z,42.28
2019-03-13T05:26:00.680Z,42.26
2019-03-13T05:27:00.758Z,42.31
2019-03-13T05:28:00.479Z,42.22
2019-03-13T05:29:00.823Z,41.94
2019-03-13T05:30:01.018Z,40.27
2019-03-13T05:31:00.556Z,40.42
2019-03-13T05:32:00.654Z,40.53
2019-03-13T05:33:00.637Z,40.38
2019-03-13T05:34:00.522Z,40.34
2019-03-13T05:35:00.712Z,39.86
2019-03-13T05:36:00.750Z,39.85
2019-03-13T05:37:00.586Z,40.05
2019-03-13T05:38:00.672Z,39.46
2019-03-13T05:39:00.582Z,39.09
2019-03-13T05:40:00.691Z,38.75
2019-03-13T05:41:01.000Z,38.9
2019-03-13T05:42:00.790Z,38.92
2019-03-13T05:43:00.783Z,38.73
2019-03-13T05:44:00.629Z,38.89
2019-03-13T05:45:00.779Z,39.11
2019-03-13T05:46:00.657Z,39.11
2019-03-13T05:47:00.492Z,39.39
2019-03-13T05:48:00.601Z,39.63
2019-03-13T05:49:00.651Z,39.72
2019-03-13T05:50:00.823Z,39.95
2019-03-13T05:51:00.612Z,39.98
2019-03-13T05:52:00.856Z,40.1
2019-03-13T05:53:00.496Z,40.13
2019-03-13T05:54:00.628Z,40.16
2019-03-13T05:55:00.676Z,40.22
2019-03-13T05:56:00.634Z,40.3
2019-03-13T05:57:00.633Z,40.35
2019-03-13T05:58:00.770Z,40.4
2019-03-13T05:59:00.504Z,40.4
2019-03-13T06:00:00.741Z,40.42
2019-03-13T06:01:00.677Z,40.49
2019-03-13T06:02:00.507Z,40.52
2019-03-13T06:03:00.655Z,40.5
2019-03-13T06:04:00.575Z,40.54
2019-03-13T06:05:00.780Z,40.63
2019-03-13T06:06:00.678Z,40.59
2019-03-13T06:07:00.800Z,40.6
2019-03-13T06:08:00.532Z,40.67
2019-03-13T06:09:00.687Z,40.64
2019-03-13T06:10:00.916Z,40.63
2019-03-13T06:11:00.582Z,40.74
2019-03-13T06:12:01.769Z,40.75
2019-03-13T06:13:00.597Z,40.72
2019-03-13T06:14:00.571Z,40.79
2019-03-13T06:15:04.129Z,40.83
2019-03-13T06:16:00.491Z,40.76
2019-03-13T06:17:00.627Z,40.81
2019-03-13T06:18:00.764Z,40.83
2019-03-13T06:19:00.558Z,40.88
2019-03-13T06:20:00.852Z,40.92
2019-03-13T06:21:00.399Z,40.83
2019-03-13T06:22:00.663Z,40.87
2019-03-13T06:23:00.741Z,40.88
2019-03-13T06:24:00.461Z,40.9
2019-03-13T06:25:00.615Z,40.92
2019-03-13T06:26:00.620Z,40.96
2019-03-13T06:27:00.461Z,40.94
2019-03-13T06:28:00.602Z,40.94
2019-03-13T06:29:00.609Z,40.98
2019-03-13T06:30:00.750Z,41.02
2019-03-13T06:31:00.653Z,40.98
2019-03-13T06:32:00.631Z,41.05
2019-03-13T06:33:00.587Z,41.05
2019-03-13T06:34:00.585Z,41.02
2019-03-13T06:35:00.899Z,41.09
2019-03-13T06:36:00.586Z,41.05
2019-03-13T06:37:00.684Z,41.06
2019-03-13T06:38:00.717Z,41.1
2019-03-13T06:39:00.656Z,41.15
2019-03-13T06:40:00.751Z,41.09
2019-03-13T06:41:00.567Z,41.11
2019-03-13T06:42:00.499Z,41.14
2019-03-13T06:43:00.618Z,41.14
2019-03-13T06:44:00.447Z,41.19
2019-03-13T06:45:00.577Z,41.16
2019-03-13T06:46:00.680Z,41.15
2019-03-13T06:47:00.628Z,41.22
2019-03-13T06:48:00.601Z,41.2
2019-03-13T06:49:01.064Z,41.21
2019-03-13T06:50:00.662Z,41.25
2019-03-13T06:51:00.567Z,41.28
2019-03-13T06:52:00.935Z,41.23
2019-03-13T06:53:00.509Z,41.28
2019-03-13T06:54:00.543Z,41.28
2019-03-13T06:55:01.090Z,41.29
2019-03-13T06:56:00.617Z,41.33
2019-03-13T06:57:00.692Z,41.29
2019-03-13T06:58:00.512Z,41.32
2019-03-13T06:59:00.584Z,41.37
2019-03-13T07:00:00.593Z,41.35
2019-03-13T07:01:00.484Z,41.34
2019-03-13T07:02:00.603Z,41.39
2019-03-13T07:03:00.631Z,41.37
2019-03-13T07:04:00.408Z,41.39
2019-03-13T07:05:00.800Z,41.41
2019-03-13T07:06:00.762Z,41.43
2019-03-13T07:07:00.449Z,41.43
2019-03-13T07:08:00.684Z,41.43
2019-03-13T07:09:00.944Z,41.45
2019-03-13T07:10:00.509Z,41.45
2019-03-13T07:11:00.651Z,41.46
2019-03-13T07:12:00.388Z,41.47
2019-03-13T07:13:00.591Z,41.44
2019-03-13T07:14:00.592Z,41.46
2019-03-13T07:15:00.670Z,41.45
2019-03-13T07:16:00.596Z,41.48
2019-03-13T07:17:00.688Z,41.48
2019-03-13T07:18:00.892Z,41.45
2019-03-13T07:19:00.594Z,41.5
2019-03-13T07:20:00.864Z,41.45
2019-03-13T07:21:00.462Z,41.53
2019-03-13T07:22:00.492Z,41.5
2019-03-13T07:23:00.640Z,41.5
2019-03-13T07:24:00.517Z,41.48
2019-03-13T07:25:00.654Z,41.57
2019-03-13T07:26:00.628Z,41.5
2019-03-13T07:27:00.535Z,41.48
2019-03-13T07:28:00.732Z,41.55
2019-03-13T07:29:13.171Z,41.55
2019-03-13T07:30:00.700Z,41.53
2019-03-13T07:31:00.613Z,41.56
2019-03-13T07:32:00.699Z,41.55
2019-03-13T07:33:00.507Z,41.6
2019-03-13T07:34:00.709Z,41.57
2019-03-13T07:35:00.626Z,41.56
2019-03-13T07:36:00.503Z,41.53
2019-03-13T07:37:00.594Z,41.58
2019-03-13T07:38:00.717Z,41.58
2019-03-13T07:39:00.549Z,41.54
2019-03-13T07:40:00.741Z,41.54
2019-03-13T07:41:00.724Z,41.61
2019-03-13T07:42:00.542Z,41.61
2019-03-13T07:43:00.549Z,41.56
2019-03-13T07:44:00.647Z,41.61
2019-03-13T07:45:00.592Z,41.55
2019-03-13T07:46:00.559Z,41.6
2019-03-13T07:47:00.679Z,41.59
2019-03-13T07:48:00.518Z,41.6
2019-03-13T07:49:00.665Z,41.53
2019-03-13T07:50:00.908Z,41.58
2019-03-13T07:51:00.504Z,41.56
2019-03-13T07:52:00.839Z,41.61
2019-03-13T07:53:00.676Z,41.6
2019-03-13T07:54:00.504Z,41.58
2019-03-13T07:55:00.717Z,41.56
2019-03-13T07:56:00.666Z,41.61
2019-03-13T07:57:00.528Z,41.59
2019-03-13T07:58:00.530Z,41.58
2019-03-13T07:59:00.754Z,41.63
2019-03-13T08:00:01.000Z,41.6
2019-03-13T08:01:00.684Z,41.6
2019-03-13T08:02:00.394Z,41.65
2019-03-13T08:03:00.558Z,41.55
2019-03-13T08:04:00.614Z,41.61
2019-03-13T08:05:00.614Z,41.64
2019-03-13T08:06:00.589Z,41.59
2019-03-13T08:07:00.711Z,41.61
2019-03-13T08:08:00.459Z,41.6
2019-03-13T08:09:00.625Z,41.65
2019-03-13T08:10:00.670Z,41.66
2019-03-13T08:11:00.545Z,41.66
2019-03-13T08:12:00.610Z,41.6
2019-03-13T08:13:00.455Z,41.61
2019-03-13T08:14:00.541Z,41.66
2019-03-13T08:15:00.787Z,41.66
2019-03-13T08:16:00.453Z,41.6
2019-03-13T08:17:00.460Z,41.65
2019-03-13T08:18:00.608Z,41.66
2019-03-13T08:19:00.516Z,41.63
2019-03-13T08:20:00.657Z,41.59
2019-03-13T08:21:00.669Z,41.55
2019-03-13T08:22:00.767Z,41.63
2019-03-13T08:23:00.685Z,41.63
2019-03-13T08:24:00.780Z,41.67
2019-03-13T08:25:00.756Z,41.63
2019-03-13T08:26:00.552Z,41.6
2019-03-13T08:27:00.420Z,41.61
2019-03-13T08:28:00.596Z,41.67
2019-03-13T08:29:00.725Z,41.6
2019-03-13T08:30:00.583Z,41.65
2019-03-13T08:31:00.568Z,41.64
2019-03-13T08:32:00.755Z,41.64
2019-03-13T08:33:00.432Z,41.67
2019-03-13T08:34:00.665Z,41.68
2019-03-13T08:35:00.825Z,41.64
2019-03-13T08:36:00.950Z,41.78
2019-03-13T08:37:00.646Z,41.94
2019-03-13T08:38:00.669Z,42.16
2019-03-13T08:39:00.552Z,42.1
2019-03-13T08:40:00.715Z,42.08
2019-03-13T08:41:00.442Z,42.09
2019-03-13T08:42:00.760Z,42.07
2019-03-13T08:43:00.982Z,42.15
2019-03-13T08:44:00.489Z,42.22
2019-03-13T08:45:00.705Z,42.27
2019-03-13T08:46:00.629Z,42.21
2019-03-13T08:47:00.501Z,42.29
2019-03-13T08:48:00.561Z,42.35
2019-03-13T08:49:00.454Z,42.4
2019-03-13T08:50:00.743Z,42.4
2019-03-13T08:51:00.535Z,42.28
2019-03-13T08:52:00.511Z,42.31
2019-03-13T08:53:00.748Z,42.44
2019-03-13T08:54:00.585Z,42.65
2019-03-13T08:55:00.766Z,42.48
2019-03-13T08:56:00.626Z,42.4
2019-03-13T08:57:00.574Z,42.48
2019-03-13T08:58:00.551Z,42.61
2019-03-13T08:59:00.557Z,42.4
2019-03-13T09:00:00.805Z,42.3
2019-03-13T09:01:00.650Z,42.38
2019-03-13T09:02:00.689Z,42.33
2019-03-13T09:03:00.516Z,42.26
2019-03-13T09:04:00.648Z,42.9
2019-03-13T09:05:00.839Z,43.34
2019-03-13T09:06:00.534Z,42.8
2019-03-13T09:07:00.481Z,42.09
2019-03-13T09:08:00.662Z,41.83
2019-03-13T09:09:00.556Z,42.03
2019-03-13T09:10:00.623Z,41.92
2019-03-13T09:11:00.539Z,41.97
2019-03-13T09:12:00.583Z,42.1
2019-03-13T09:13:02.450Z,42.84
2019-03-13T09:14:00.606Z,42.54
2019-03-13T09:15:00.800Z,41.35
2019-03-13T09:16:00.718Z,40.13
2019-03-13T09:17:00.401Z,40.28
2019-03-13T09:18:00.831Z,40.26
2019-03-13T09:19:00.602Z,42.34
2019-03-13T09:20:00.773Z,41.7
2019-03-13T09:21:00.581Z,41.13
2019-03-13T09:22:00.601Z,40.77
2019-03-13T09:23:00.556Z,41.33
2019-03-13T09:24:00.606Z,41.96
2019-03-13T09:25:12.992Z,41.07
2019-03-13T09:26:00.708Z,41.11
2019-03-13T09:27:00.677Z,41.28
2019-03-13T09:28:00.716Z,41.61
2019-03-13T09:29:00.424Z,41.39
2019-03-13T09:30:00.802Z,41.01
2019-03-13T09:31:00.690Z,41.1
2019-03-13T09:32:00.460Z,41.21
2019-03-13T09:33:00.655Z,41.39
2019-03-13T09:34:00.463Z,41.58
2019-03-13T09:35:00.551Z,41.58
2019-03-13T09:36:00.607Z,41.63
2019-03-13T09:37:00.411Z,41.52
2019-03-13T09:38:00.490Z,41.65
2019-03-13T09:39:00.559Z,41.63
2019-03-13T09:40:00.792Z,41.63
2019-03-13T09:41:00.455Z,41.63
2019-03-13T09:42:00.688Z,41.66
2019-03-13T09:43:00.456Z,41.63
2019-03-13T09:44:00.600Z,41.62
2019-03-13T09:45:00.643Z,41.75
2019-03-13T09:46:00.441Z,41.68
2019-03-13T09:47:00.531Z,41.7
2019-03-13T09:48:00.494Z,41.78
2019-03-13T09:49:00.548Z,41.84
2019-03-13T09:50:00.650Z,41.79
2019-03-13T09:51:00.446Z,41.86
2019-03-13T09:52:00.492Z,41.77
2019-03-13T09:53:00.525Z,41.83
2019-03-13T09:54:00.692Z,41.9
2019-03-13T09:55:05.087Z,41.85
2019-03-13T09:56:00.571Z,41.9
2019-03-13T09:57:00.353Z,41.86
2019-03-13T09:58:00.474Z,41.87
2019-03-13T09:59:00.710Z,41.76
2019-03-13T10:00:00.731Z,41.96
2019-03-13T10:01:00.517Z,41.91
2019-03-13T10:02:00.539Z,41.82
2019-03-13T10:03:00.448Z,41.76
2019-03-13T10:04:00.562Z,41.87
2019-03-13T10:05:00.576Z,41.77
2019-03-13T10:06:00.378Z,41.8
2019-03-13T10:07:00.553Z,41.8
2019-03-13T10:08:00.758Z,41.89
2019-03-13T10:09:00.528Z,41.89
2019-03-13T10:10:00.799Z,41.84
2019-03-13T10:11:00.518Z,41.84
2019-03-13T10:12:00.493Z,41.97
2019-03-13T10:13:00.506Z,41.85
2019-03-13T10:14:00.663Z,41.79
2019-03-13T10:15:00.827Z,42.16
2019-03-13T10:16:00.509Z,41.9
2019-03-13T10:17:11.606Z,42.37
2019-03-13T10:18:00.507Z,41.71
2019-03-13T10:19:00.625Z,41.52
2019-03-13T10:20:00.700Z,41.66
2019-03-13T10:21:00.519Z,41.53
2019-03-13T10:22:00.618Z,41.5
2019-03-13T10:23:00.672Z,42.11
2019-03-13T10:24:00.596Z,41.46
2019-03-13T10:25:00.624Z,41.45
2019-03-13T10:26:00.485Z,41.48
2019-03-13T10:27:00.556Z,41.47
2019-03-13T10:28:00.621Z,41.43
2019-03-13T10:29:00.349Z,41.42
2019-03-13T10:30:00.720Z,41.4
2019-03-13T10:31:00.626Z,41.4
2019-03-13T10:32:00.339Z,41.34
2019-03-13T10:33:00.527Z,41.81
2019-03-13T10:34:00.589Z,42.07
2019-03-13T10:35:00.691Z,42.01
2019-03-13T10:36:00.619Z,41.98
2019-03-13T10:37:00.637Z,41.96
2019-03-13T10:38:14.727Z,42.02
2019-03-13T10:39:00.305Z,41.86
2019-03-13T10:40:00.653Z,41.96
2019-03-13T10:41:00.849Z,41.77
2019-03-13T10:42:00.554Z,41.56
2019-03-13T10:43:00.514Z,41.49
2019-03-13T10:44:00.637Z,41.54
2019-03-13T10:45:00.739Z,41.49
2019-03-13T10:46:00.481Z,41.39
2019-03-13T10:47:00.547Z,41.59
2019-03-13T10:48:00.526Z,41.39
2019-03-13T10:49:00.525Z,41.37
2019-03-13T10:50:00.681Z,41.33
2019-03-13T10:51:00.417Z,41.35
2019-03-13T10:52:00.586Z,41.37
2019-03-13T10:53:00.560Z,41.33
2019-03-13T10:54:00.735Z,41.5
2019-03-13T10:55:00.654Z,40.24
2019-03-13T10:56:00.401Z,39.83
2019-03-13T10:57:00.471Z,40.14
2019-03-13T10:58:00.600Z,40.45
2019-03-13T10:59:00.508Z,40.81
2019-03-13T11:00:00.636Z,40.69
2019-03-13T11:01:00.724Z,41.02
2019-03-13T11:02:00.468Z,40.99
2019-03-13T11:03:00.574Z,41.05
2019-03-13T11:04:00.321Z,41.18
2019-03-13T11:05:00.813Z,41.2
2019-03-13T11:06:00.640Z,41.28
2019-03-13T11:07:00.313Z,41.28
2019-03-13T11:08:00.527Z,41.33
2019-03-13T11:09:00.629Z,41.38
2019-03-13T11:10:00.733Z,41.38
2019-03-13T11:11:00.514Z,41.37
2019-03-13T11:12:00.924Z,41.39
2019-03-13T11:13:00.487Z,41.39
2019-03-13T11:14:00.571Z,41.38
2019-03-13T11:15:00.694Z,41.44
2019-03-13T11:16:00.566Z,41.48
2019-03-13T11:17:00.608Z,41.49
2019-03-13T11:18:00.402Z,41.53
2019-03-13T11:19:00.392Z,41.5
2019-03-13T11:20:00.699Z,41.49
2019-03-13T11:21:00.418Z,41.48
2019-03-13T11:22:00.445Z,41.49
2019-03-13T11:23:00.636Z,41.5
2019-03-13T11:24:01.383Z,41.49
2019-03-13T11:25:00.629Z,41.5
2019-03-13T11:26:00.650Z,41.54
2019-03-13T11:27:00.442Z,41.55
2019-03-13T11:28:00.465Z,41.53
2019-03-13T11:29:00.395Z,41.52
2019-03-13T11:30:00.872Z,41.53
2019-03-13T11:31:00.573Z,41.51
2019-03-13T11:32:00.334Z,41.54
2019-03-13T11:33:00.519Z,41.54
2019-03-13T11:34:00.507Z,41.51
2019-03-13T11:35:00.664Z,41.52
2019-03-13T11:36:00.875Z,41.52
2019-03-13T11:37:00.486Z,41.52
2019-03-13T11:38:00.375Z,41.54
2019-03-13T11:39:00.520Z,41.52
2019-03-13T11:40:00.734Z,41.54
2019-03-13T11:41:00.406Z,41.51
2019-03-13T11:42:00.510Z,41.54
2019-03-13T11:43:00.391Z,41.54
2019-03-13T11:44:00.537Z,41.52
2019-03-13T11:45:00.600Z,41.53
2019-03-13T11:46:00.405Z,41.51
2019-03-13T11:47:00.419Z,41.53
2019-03-13T11:48:00.725Z,41.5
2019-03-13T11:49:00.409Z,41.54
2019-03-13T11:50:00.808Z,41.53
2019-03-13T11:51:00.633Z,41.54
2019-03-13T11:52:00.456Z,41.51
2019-03-13T11:53:00.461Z,41.49
2019-03-13T11:54:00.414Z,41.5
2019-03-13T11:55:00.559Z,41.49
2019-03-13T11:56:00.508Z,41.47
2019-03-13T11:57:00.549Z,41.41
2019-03-13T11:58:00.477Z,41.48
2019-03-13T11:59:00.516Z,41.47
2019-03-13T12:00:00.676Z,41.41
2019-03-13T12:01:00.670Z,41.43
2019-03-13T12:02:00.682Z,41.43
2019-03-13T12:03:00.498Z,41.41
2019-03-13T12:04:00.516Z,41.44
2019-03-13T12:05:00.713Z,41.42
2019-03-13T12:06:00.527Z,41.47
2019-03-13T12:07:00.543Z,41.46
2019-03-13T12:08:00.489Z,41.47
2019-03-13T12:09:00.520Z,41.43
2019-03-13T12:10:00.635Z,41.43
2019-03-13T12:11:00.478Z,41.48
2019-03-13T12:12:00.475Z,41.43
2019-03-13T12:13:00.613Z,41.49
2019-03-13T12:14:00.533Z,41.44
2019-03-13T12:15:00.890Z,41.48
2019-03-13T12:16:00.611Z,41.47
2019-03-13T12:17:00.404Z,41.45
2019-03-13T12:18:00.609Z,41.37
2019-03-13T12:19:00.710Z,41.39
2019-03-13T12:20:00.566Z,41.43
2019-03-13T12:21:00.633Z,41.41
2019-03-13T12:22:00.411Z,41.39
2019-03-13T12:23:00.477Z,41.36
2019-03-13T12:24:00.616Z,41.45
2019-03-13T12:25:00.642Z,41.44
2019-03-13T12:26:03.920Z,41.37
2019-03-13T12:27:00.543Z,41.39
2019-03-13T12:28:00.437Z,41.34
2019-03-13T12:29:00.446Z,41.36
2019-03-13T12:30:00.766Z,41.45
2019-03-13T12:31:00.281Z,41.41
2019-03-13T12:32:00.488Z,41.39
2019-03-13T12:33:00.642Z,41.34
2019-03-13T12:34:00.325Z,41.4
2019-03-13T12:35:00.584Z,41.42
2019-03-13T12:36:01.060Z,41.39
2019-03-13T12:37:00.459Z,41.35
2019-03-13T12:38:00.565Z,41.39
2019-03-13T12:39:01.047Z,41.5
2019-03-13T12:40:00.663Z,41.47
2019-03-13T12:41:00.480Z,41.59
2019-03-13T12:42:00.723Z,41.71
2019-03-13T12:43:00.412Z,41.72
2019-03-13T12:44:00.453Z,41.79
2019-03-13T12:45:00.701Z,41.77
2019-03-13T12:46:00.344Z,41.79
2019-03-13T12:47:00.387Z,41.78
2019-03-13T12:48:00.521Z,41.83
2019-03-13T12:49:00.363Z,41.74
2019-03-13T12:50:00.575Z,41.69
2019-03-13T12:51:00.668Z,41.51
2019-03-13T12:52:00.412Z,41.47
2019-03-13T12:53:00.531Z,41.65
2019-03-13T12:54:00.380Z,41.65
2019-03-13T12:55:03.317Z,41.64